Terminal Aerodrome Forecast
Issued by NWS

Home | Current Version | Previous Version | Text Only | Print | Product List | Glossary On
Versions: 1 2 3 4 5 6 7 8 9 10 11 12 13 14 15 16 17 18
164
FTUS46 KSTO 080540
TAFMHR
TAF
KMHR 080540Z 0806/0906 35003KT P6SM -RA OVC040
     FM081100 14009KT 5SM -RA OVC025
     FM081400 15012KT 4SM -RA OVC015
     FM081800 15015G23KT 4SM -RA BR OVC015
     FM082300 16009KT 4SM BR OVC025
      TEMPO 0903/0906 4SM -DZ OVC015=

USA.gov is the U.S. government's official web portal to all federal, state and local government web resources and services.